| time (UTC) | temp F | wind direction | speed MPH | gust MPH | rain 1hr in | rain 24hr in | rain mn in | humidity % | barometer mb |
| 20260906154514 | 68 | 31 | 5.0 | 13.0 | 0.00 | 0.01 | 0.01 | 75 | 1016.2 |
| 20260906153026 | 67 | 22 | 4.0 | 11.0 | 0.00 | 0.01 | 0.01 | 78 | 1016.2 |
| 20260906151506 | 65 | 40 | 5.0 | 12.0 | 0.00 | 0.01 | 0.01 | 82 | 1016.2 |
| 20260906150007 | 64 | 360 | 4.0 | 9.0 | 0.00 | 0.01 | 0.01 | 88 | 1016.1 |
| 20260906144502 | 64 | 11 | 4.0 | 9.0 | 0.00 | 0.01 | 0.01 | 87 | 1016.1 |
| 20260906143058 | 64 | 325 | 3.0 | 9.0 | 0.00 | 0.01 | 0.01 | 87 | 1016.0 |
| 20260906141554 | 63 | 24 | 6.0 | 10.0 | 0.00 | 0.01 | 0.01 | 89 | 1016.0 |
| 20260906140050 | 62 | 27 | 4.0 | 10.0 | 0.00 | 0.01 | 0.01 | 91 | 1015.8 |
| 20260906134607 | 62 | 355 | 4.0 | 9.0 | 0.00 | 0.01 | 0.01 | 93 | 1015.7 |
| 20260906133052 | 61 | 360 | 3.0 | 8.0 | 0.00 | 0.01 | 0.01 | 95 | 1015.7 |
| 20260906131544 | 61 | 11 | 2.0 | 6.0 | 0.00 | 0.01 | 0.01 | 95 | 1015.7 |
| 20260906130044 | 61 | 323 | 3.0 | 6.0 | 0.00 | 0.01 | 0.01 | 95 | 1015.7 |
| 20260906124541 | 61 | 355 | 3.0 | 8.0 | 0.00 | 0.01 | 0.01 | 96 | 1015.5 |
| 20260906123052 | 60 | 30 | 3.0 | 8.0 | 0.00 | 0.01 | 0.01 | 96 | 1015.4 |
| 20260906121542 | 60 | 343 | 3.0 | 8.0 | 0.00 | 0.01 | 0.01 | 96 | 1015.2 |
| 20260906120033 | 60 | 335 | 3.0 | 8.0 | 0.00 | 0.01 | 0.01 | 97 | 1015.2 |
| 20260906114531 | 59 | 355 | 4.0 | 10.0 | 0.00 | 0.01 | 0.01 | 97 | 1015.0 |
| 20260906113031 | 59 | 336 | 4.0 | 8.0 | 0.00 | 0.01 | 0.01 | 97 | 1014.9 |
| 20260906111528 | 59 | 350 | 4.0 | 10.0 | 0.00 | 0.01 | 0.01 | 97 | 1014.9 |
| 20260906110023 | 59 | 343 | 5.0 | 11.0 | 0.00 | 0.01 | 0.01 | 97 | 1014.7 |
| 20260906104521 | 59 | 346 | 3.0 | 11.0 | 0.00 | 0.01 | 0.01 | 97 | 1014.6 |
| 20260906103020 | 59 | 336 | 4.0 | 10.0 | 0.00 | 0.01 | 0.01 | 97 | 1014.5 |
| 20260906101527 | 59 | 28 | 6.0 | 11.0 | 0.00 | 0.01 | 0.01 | 97 | 1014.4 |
| 20260906100019 | 59 | 323 | 7.0 | 13.0 | 0.00 | 0.01 | 0.01 | 96 | 1014.4 |
| 20260906094516 | 59 | 315 | 5.0 | 11.0 | 0.00 | 0.01 | 0.01 | 96 | 1014.2 |
| 20260906093020 | 59 | 355 | 5.0 | 10.0 | 0.00 | 0.01 | 0.01 | 96 | 1013.9 |
| 20260906091511 | 59 | 321 | 6.0 | 10.0 | 0.00 | 0.01 | 0.01 | 96 | 1013.6 |
| 20260906090032 | 59 | 355 | 3.0 | 8.0 | 0.00 | 0.01 | 0.01 | 96 | 1013.7 |
| 20260906084511 | 59 | 306 | 3.0 | 8.0 | 0.00 | 0.01 | 0.01 | 96 | 1013.7 |
| 20260906083009 | 59 | 360 | 4.0 | 10.0 | 0.00 | 0.01 | 0.01 | 96 | 1013.5 |
| 20260906081511 | 59 | 346 | 4.0 | 6.0 | 0.00 | 0.01 | 0.01 | 97 | 1013.4 |
| 20260906080008 | 57 | 12 | 2.0 | 4.0 | 0.00 | 0.01 | 0.01 | 97 | 1013.5 |
| 20260906074507 | 57 | 63 | 0.0 | 0.0 | 0.00 | 0.01 | 0.01 | 95 | 1013.4 |
| 20260906073005 | 58 | 63 | 0.0 | 0.0 | 0.01 | 0.01 | 0.01 | 95 | 1013.3 |
| 20260906071504 | 58 | 63 | 0.0 | 1.0 | 0.01 | 0.01 | 0.01 | 95 | 1013.3 |
| 20260906070003 | 59 | 27 | 0.0 | 8.0 | 0.01 | 0.01 | 0.01 | 96 | 1013.3 |
| 20260906064502 | 59 | 317 | 3.0 | 6.0 | 0.00 | 0.00 | 0.00 | 96 | 1013.3 |
| 20260906063001 | 59 | 346 | 4.0 | 8.0 | 0.00 | 0.00 | 0.00 | 96 | 1013.3 |
| 20260906061601 | 59 | 38 | 2.0 | 8.0 | 0.00 | 0.00 | 0.00 | 96 | 1013.3 |
| 20260906060058 | 58 | 107 | 0.0 | 3.0 | 0.00 | 0.00 | 0.00 | 95 | 1013.5 |
| 20260906054558 | 58 | 178 | 0.0 | 2.0 | 0.00 | 0.00 | 0.00 | 95 | 1013.6 |
| 20260906054508 | 58 | 178 | 0.0 | 2.0 | 0.00 | 0.00 | 0.00 | 95 | 1013.6 |
| 20260906053057 | 58 | 110 | 0.0 | 1.0 | 0.00 | 0.00 | 0.00 | 94 | 1013.7 |
| 20260906051602 | 59 | 108 | 0.0 | 3.0 | 0.00 | 0.00 | 0.00 | 95 | 1013.7 |
| 20260906050105 | 58 | 325 | 2.0 | 5.0 | 0.00 | 0.00 | 0.00 | 96 | 1013.8 |
| 20260906044553 | 57 | 315 | 0.0 | 2.0 | 0.00 | 0.00 | 0.00 | 94 | 1013.7 |
| 20260906043057 | 58 | 268 | 0.0 | 2.0 | 0.00 | 0.00 | 0.00 | 93 | 1013.6 |
| 20260906041547 | 58 | 198 | 0.0 | 3.0 | 0.00 | 0.00 | 0.00 | 93 | 1013.7 |
| 20260906040043 | 59 | 28 | 0.0 | 2.0 | 0.00 | 0.00 | 0.00 | 92 | 1013.6 |
| 20260906034605 | 60 | 43 | 0.0 | 5.0 | 0.00 | 0.00 | 0.00 | 92 | 1013.4 |
| 20260906033103 | 60 | 344 | 2.0 | 6.0 | 0.00 | 0.00 | 0.00 | 92 | 1013.5 |
| 20260906031546 | 60 | 22 | 3.0 | 8.0 | 0.00 | 0.00 | 0.00 | 92 | 1013.3 |
| 20260906030038 | 60 | 347 | 3.0 | 8.0 | 0.00 | 0.00 | 0.00 | 93 | 1013.1 |
| 20260906024537 | 60 | 263 | 1.0 | 6.0 | 0.00 | 0.00 | 0.00 | 92 | 1013.2 |
| 20260906023037 | 59 | 17 | 1.0 | 4.0 | 0.00 | 0.00 | 0.00 | 93 | 1013.2 |
| 20260906021538 | 59 | 339 | 3.0 | 6.0 | 0.00 | 0.00 | 0.00 | 92 | 1013.2 |
| 20260906020033 | 59 | 299 | 0.0 | 2.0 | 0.00 | 0.00 | 0.00 | 91 | 1012.9 |
| 20260906014532 | 59 | 355 | 0.0 | 3.0 | 0.00 | 0.00 | 0.00 | 91 | 1012.9 |
| 20260906013051 | 60 | 335 | 1.0 | 3.0 | 0.00 | 0.00 | 0.00 | 90 | 1012.8 |
| 20260906011530 | 60 | 346 | 1.0 | 3.0 | 0.00 | 0.00 | 0.00 | 90 | 1012.8 |
| 20260906010047 | 60 | 10 | 0.0 | 2.0 | 0.00 | 0.00 | 0.00 | 89 | 1012.7 |
| 20260906004528 | 61 | 335 | 0.0 | 2.0 | 0.00 | 0.00 | 0.00 | 87 | 1012.6 |
| 20260906003026 | 62 | 344 | 0.0 | 4.0 | 0.00 | 0.00 | 0.00 | 86 | 1012.4 |
| 20260906001524 | 62 | 5 | 2.0 | 5.0 | 0.00 | 0.00 | 0.00 | 85 | 1012.4 |
| 20260906000024 | 64 | 326 | 0.0 | 5.0 | 0.00 | 0.00 | 0.00 | 82 | 1012.3 |
| 20260905234522 | 64 | 339 | 3.0 | 6.0 | 0.00 | 0.00 | 0.00 | 80 | 1012.2 |
| 20260905233022 | 65 | 332 | 0.0 | 4.0 | 0.00 | 0.00 | 0.00 | 78 | 1012.0 |
| 20260905231526 | 67 | 355 | 2.0 | 8.0 | 0.00 | 0.00 | 0.00 | 75 | 1012.1 |
| 20260905230024 | 68 | 37 | 1.0 | 8.0 | 0.00 | 0.00 | 0.00 | 74 | 1012.0 |
| 20260905224518 | 68 | 360 | 4.0 | 12.0 | 0.00 | 0.00 | 0.00 | 73 | 1012.1 |
| 20260905223017 | 68 | 360 | 3.0 | 9.0 | 0.00 | 0.00 | 0.00 | 74 | 1011.7 |
| 20260905221516 | 68 | 329 | 3.0 | 11.0 | 0.00 | 0.00 | 0.00 | 73 | 1011.7 |
| 20260905220015 | 70 | 19 | 3.0 | 10.0 | 0.00 | 0.00 | 0.00 | 70 | 1011.7 |
| 20260905214516 | 72 | 355 | 5.0 | 13.0 | 0.00 | 0.00 | 0.00 | 69 | 1011.5 |
| 20260905213017 | 71 | 324 | 4.0 | 8.0 | 0.00 | 0.00 | 0.00 | 68 | 1011.3 |
| 20260905211516 | 72 | 13 | 5.0 | 11.0 | 0.00 | 0.00 | 0.00 | 65 | 1011.1 |
| 20260905210013 | 72 | 77 | 3.0 | 8.0 | 0.00 | 0.00 | 0.00 | 69 | 1011.2 |
| 20260905204534 | 72 | 31 | 5.0 | 11.0 | 0.00 | 0.00 | 0.00 | 70 | 1011.2 |
| 20260905203011 | 71 | 12 | 5.0 | 12.0 | 0.00 | 0.00 | 0.00 | 68 | 1011.0 |
| 20260905201509 | 70 | 17 | 3.0 | 10.0 | 0.00 | 0.00 | 0.00 | 73 | 1011.2 |
| 20260905200009 | 70 | 5 | 4.0 | 10.0 | 0.00 | 0.00 | 0.00 | 69 | 1011.1 |
| 20260905194508 | 70 | 18 | 6.0 | 12.0 | 0.00 | 0.00 | 0.00 | 71 | 1011.1 |
| 20260905193022 | 71 | 350 | 5.0 | 11.0 | 0.00 | 0.00 | 0.00 | 69 | 1011.2 |
| 20260905191506 | 71 | 12 | 4.0 | 9.0 | 0.00 | 0.00 | 0.00 | 70 | 1011.2 |
| 20260905190008 | 71 | 339 | 4.0 | 12.0 | 0.00 | 0.00 | 0.00 | 67 | 1011.3 |
| 20260905184510 | 72 | 221 | 1.0 | 9.0 | 0.00 | 0.00 | 0.00 | 68 | 1011.3 |
| 20260905183002 | 72 | 342 | 4.0 | 11.0 | 0.00 | 0.00 | 0.00 | 66 | 1011.4 |
| 20260905181601 | 72 | 20 | 5.0 | 9.0 | 0.00 | 0.00 | 0.00 | 70 | 1011.4 |
| 20260905180056 | 71 | 305 | 5.0 | 8.0 | 0.00 | 0.00 | 0.00 | 72 | 1011.4 |
| 20260905174555 | 69 | 9 | 3.0 | 11.0 | 0.00 | 0.00 | 0.00 | 75 | 1011.3 |
| 20260905173053 | 70 | 349 | 7.0 | 14.0 | 0.00 | 0.00 | 0.00 | 70 | 1011.5 |
| 20260905171610 | 70 | 301 | 6.0 | 11.0 | 0.00 | 0.00 | 0.00 | 69 | 1011.6 |
| 20260905170101 | 69 | 336 | 4.0 | 9.0 | 0.00 | 0.00 | 0.00 | 78 | 1011.7 |
| 20260905164551 | 68 | 350 | 5.0 | 8.0 | 0.00 | 0.00 | 0.00 | 74 | 1011.9 |
| 20260905163054 | 68 | 346 | 6.0 | 14.0 | 0.00 | 0.00 | 0.00 | 74 | 1011.9 |
| 20260905161548 | 70 | 45 | 5.0 | 10.0 | 0.00 | 0.00 | 0.00 | 72 | 1011.8 |
| 20260905160049 | 70 | 328 | 4.0 | 13.0 | 0.00 | 0.00 | 0.00 | 73 | 1011.8 |
| 20260905154556 | 69 | 299 | 6.0 | 14.0 | 0.00 | 0.00 | 0.00 | 73 | 1011.8 |